createdAt,value
2022-09-12T00:01:34.586Z,4.43
2022-09-12T00:04:03.618Z,7.43
2022-09-12T00:06:33.770Z,9.55
2022-09-12T00:09:05.564Z,8.20
2022-09-12T00:11:35.690Z,8.02
2022-09-12T00:14:09.381Z,7.82
2022-09-12T00:16:38.979Z,5.75
2022-09-12T00:19:08.227Z,7.15
2022-09-12T00:21:38.171Z,5.30
2022-09-12T00:24:06.709Z,8.88
2022-09-12T00:26:36.705Z,7.30
2022-09-12T00:29:06.368Z,5.25
2022-09-12T00:31:34.637Z,4.78
2022-09-12T00:34:02.687Z,7.82
2022-09-12T00:36:32.302Z,4.93
2022-09-12T00:39:01.343Z,4.32
2022-09-12T00:41:32.933Z,4.45
2022-09-12T00:44:02.804Z,9.77
2022-09-12T00:46:38.500Z,5.97
2022-09-12T00:49:12.621Z,5.70
2022-09-12T00:51:44.461Z,5.28
2022-09-12T00:54:17.894Z,5.28
2022-09-12T00:56:48.696Z,6.43
2022-09-12T00:59:22.093Z,5.20
2022-09-12T01:01:54.920Z,6.13
2022-09-12T01:04:26.047Z,6.53
2022-09-12T01:06:56.925Z,5.30
2022-09-12T01:09:25.714Z,6.57
2022-09-12T01:11:54.577Z,4.55
2022-09-12T01:14:22.738Z,4.35
2022-09-12T01:16:52.656Z,4.22
2022-09-12T01:19:59.252Z,4.55
2022-09-12T01:22:44.882Z,4.25
2022-09-12T01:25:24.380Z,3.90
2022-09-12T01:28:15.095Z,7.18
2022-09-12T01:30:52.679Z,5.25
2022-09-12T01:33:52.515Z,5.57
2022-09-12T01:36:38.100Z,5.50
2022-09-12T01:39:15.079Z,4.57
2022-09-12T01:41:53.848Z,3.53
2022-09-12T01:44:29.798Z,4.35
2022-09-12T01:47:05.447Z,4.95
2022-09-12T01:49:38.104Z,6.28
2022-09-12T01:52:15.516Z,5.38
2022-09-12T01:54:48.631Z,5.82
2022-09-12T01:57:23.246Z,6.60
2022-09-12T01:59:55.394Z,6.47
2022-09-12T02:02:30.546Z,7.32
2022-09-12T02:05:03.756Z,4.78
2022-09-12T02:07:37.093Z,4.97
2022-09-12T02:10:10.410Z,5.20
2022-09-12T02:12:43.633Z,5.65
2022-09-12T02:15:15.729Z,6.32
2022-09-12T02:17:51.076Z,6.65
2022-09-12T02:20:46.420Z,4.72
2022-09-12T02:23:15.025Z,10.70
2022-09-12T02:25:47.709Z,7.82
2022-09-12T02:28:19.635Z,13.18
2022-09-12T02:30:57.411Z,10.50
2022-09-12T02:33:31.505Z,10.15
2022-09-12T02:36:04.781Z,17.55
2022-09-12T02:38:38.892Z,12.98
2022-09-12T02:41:07.751Z,15.43
2022-09-12T02:43:37.939Z,9.57
2022-09-12T02:46:08.512Z,16.75
2022-09-12T02:48:43.181Z,13.80
2022-09-12T02:51:12.016Z,14.00
2022-09-12T02:53:41.469Z,11.63
2022-09-12T02:56:13.125Z,12.02
2022-09-12T02:58:41.251Z,9.68
2022-09-12T03:01:18.992Z,11.10
2022-09-12T03:04:08.286Z,11.10
2022-09-12T03:06:49.991Z,9.95
2022-09-12T03:09:25.204Z,9.48
2022-09-12T03:12:05.331Z,10.63
2022-09-12T03:15:07.309Z,9.63
2022-09-12T03:17:48.024Z,12.02
2022-09-12T03:20:26.155Z,8.35
2022-09-12T03:23:00.030Z,7.88
2022-09-12T03:25:31.865Z,8.60
2022-09-12T03:28:07.501Z,7.75
2022-09-12T03:30:39.791Z,7.57
2022-09-12T03:33:11.846Z,8.60
2022-09-12T03:35:41.376Z,9.73
2022-09-12T03:38:10.156Z,12.13
2022-09-12T03:40:38.911Z,9.68
2022-09-12T03:43:08.435Z,11.95
2022-09-12T03:45:38.248Z,8.80
2022-09-12T03:48:07.330Z,11.18
2022-09-12T03:50:35.483Z,11.77
2022-09-12T03:53:04.956Z,12.35
2022-09-12T03:55:32.941Z,10.40
2022-09-12T03:58:00.905Z,8.23
2022-09-12T04:00:29.144Z,10.70
2022-09-12T04:02:58.255Z,11.13
2022-09-12T04:05:27.686Z,7.80
2022-09-12T04:07:55.603Z,9.43
2022-09-12T04:10:25.384Z,8.13
2022-09-12T04:12:53.382Z,11.20
2022-09-12T04:15:21.865Z,8.27
2022-09-12T04:17:50.738Z,10.55
2022-09-12T04:20:19.134Z,11.05
2022-09-12T04:22:47.053Z,9.25
2022-09-12T04:25:15.335Z,8.95
2022-09-12T04:27:46.791Z,9.25
2022-09-12T04:30:14.929Z,7.63
2022-09-12T04:32:42.881Z,7.05
2022-09-12T04:35:12.264Z,5.70
2022-09-12T04:37:40.357Z,6.05
2022-09-12T04:40:10.187Z,7.15
2022-09-12T04:42:38.186Z,7.03
2022-09-12T04:45:08.983Z,4.25
2022-09-12T04:47:37.938Z,5.88
2022-09-12T04:50:06.706Z,4.22
2022-09-12T04:52:35.012Z,6.03
2022-09-12T04:55:04.008Z,6.28
2022-09-12T04:57:31.961Z,4.57
2022-09-12T05:00:02.847Z,3.88
2022-09-12T05:02:35.940Z,4.20
2022-09-12T05:05:04.106Z,3.95
2022-09-12T05:07:32.378Z,5.47
2022-09-12T05:10:01.649Z,5.45
2022-09-12T05:12:31.235Z,6.13
2022-09-12T05:14:59.204Z,3.97
2022-09-12T05:17:27.153Z,3.80
2022-09-12T05:19:56.718Z,4.65
2022-09-12T05:22:26.908Z,3.30
2022-09-12T05:24:54.841Z,4.70
2022-09-12T05:27:22.772Z,5.78
2022-09-12T05:29:50.723Z,3.45
2022-09-12T05:32:18.655Z,7.40
2022-09-12T05:34:49.747Z,6.15
2022-09-12T05:37:18.999Z,5.30
2022-09-12T05:39:49.559Z,6.30
2022-09-12T05:42:19.362Z,3.53
2022-09-12T05:44:51.444Z,5.10
2022-09-12T05:47:21.125Z,6.38
2022-09-12T05:49:52.391Z,4.28
2022-09-12T05:52:22.509Z,3.67
2022-09-12T05:54:50.441Z,4.05
2022-09-12T05:57:18.352Z,3.08
2022-09-12T05:59:46.932Z,5.47
2022-09-12T06:02:16.075Z,4.05
2022-09-12T06:04:44.071Z,3.17
2022-09-12T06:07:12.216Z,4.68
2022-09-12T06:09:41.721Z,3.08
2022-09-12T06:12:09.678Z,3.70
2022-09-12T06:14:38.807Z,2.88
2022-09-12T06:17:06.708Z,3.17
2022-09-12T06:19:35.151Z,3.47
2022-09-12T06:22:03.066Z,5.68
2022-09-12T06:24:30.990Z,6.63
2022-09-12T06:27:02.257Z,3.95
2022-09-12T06:29:33.835Z,3.33
2022-09-12T06:32:05.292Z,3.67
2022-09-12T06:34:36.399Z,4.53
2022-09-12T06:37:08.745Z,3.25
2022-09-12T06:39:38.758Z,2.63
2022-09-12T06:42:10.026Z,4.22
2022-09-12T06:44:40.379Z,5.47
2022-09-12T06:47:08.469Z,3.38
2022-09-12T06:49:36.419Z,3.30
2022-09-12T06:52:05.855Z,2.58
2022-09-12T06:54:39.333Z,2.55
2022-09-12T06:57:10.273Z,4.22
2022-09-12T06:59:38.268Z,3.38
2022-09-12T07:02:06.383Z,3.33
2022-09-12T07:04:37.159Z,3.92
2022-09-12T07:07:05.984Z,9.25
2022-09-12T07:09:34.641Z,5.10
2022-09-12T07:12:04.418Z,3.35
2022-09-12T07:14:34.367Z,3.08
2022-09-12T07:17:03.164Z,2.85
2022-09-12T07:19:31.761Z,4.05
2022-09-12T07:22:00.128Z,2.15
2022-09-12T07:24:28.794Z,2.90
2022-09-12T07:26:57.768Z,2.08
2022-09-12T07:29:36.595Z,3.50
2022-09-12T07:32:08.834Z,2.22
2022-09-12T07:34:37.193Z,2.08
2022-09-12T07:37:08.414Z,3.63
2022-09-12T07:39:38.568Z,3.45
2022-09-12T07:42:08.972Z,1.90
2022-09-12T07:44:37.874Z,3.10
2022-09-12T07:47:12.237Z,4.30
2022-09-12T07:49:41.897Z,3.92
2022-09-12T07:52:11.463Z,3.83
2022-09-12T07:54:40.611Z,3.08
2022-09-12T07:57:10.295Z,2.22
2022-09-12T07:59:52.519Z,3.35
2022-09-12T08:02:23.072Z,1.63
2022-09-12T08:04:51.903Z,1.45
2022-09-12T08:07:21.876Z,2.90
2022-09-12T08:09:54.350Z,3.92
2022-09-12T08:12:23.229Z,6.68
2022-09-12T08:14:53.997Z,3.28
2022-09-12T08:17:27.099Z,1.88
2022-09-12T08:19:55.408Z,3.17
2022-09-12T08:22:25.429Z,2.00
2022-09-12T08:24:55.399Z,5.85
2022-09-12T08:27:25.826Z,0.73
2022-09-12T08:29:57.385Z,2.35
2022-09-12T08:32:31.142Z,1.90
2022-09-12T08:35:02.225Z,1.83
2022-09-12T08:37:33.085Z,3.72
2022-09-12T08:40:01.318Z,3.85
2022-09-12T08:42:47.027Z,2.65
2022-09-12T08:45:21.516Z,2.40
2022-09-12T08:47:53.716Z,2.95
2022-09-12T08:50:24.164Z,1.35
2022-09-12T08:52:59.491Z,2.00
2022-09-12T08:55:32.252Z,3.67
2022-09-12T08:58:03.837Z,2.40
2022-09-12T09:00:41.284Z,1.80
2022-09-12T09:03:27.580Z,4.97
2022-09-12T09:06:01.797Z,1.42
2022-09-12T09:08:53.921Z,1.60
2022-09-12T09:11:51.820Z,2.47
2022-09-12T09:14:49.112Z,1.30
2022-09-12T09:17:26.255Z,3.75
2022-09-12T09:20:08.318Z,4.63
2022-09-12T09:22:43.270Z,2.08
2022-09-12T09:25:22.574Z,2.08
2022-09-12T09:27:59.498Z,1.10
2022-09-12T09:30:29.883Z,1.65
2022-09-12T09:33:01.173Z,2.38
2022-09-12T09:35:44.543Z,1.77
2022-09-12T09:38:24.374Z,1.20
2022-09-12T09:41:06.823Z,1.40
2022-09-12T09:43:39.324Z,2.70
2022-09-12T09:46:08.728Z,1.63
2022-09-12T09:48:42.069Z,3.00
2022-09-12T09:51:11.889Z,3.08
2022-09-12T09:53:47.195Z,1.92
2022-09-12T09:56:27.213Z,1.50
2022-09-12T09:58:55.548Z,1.10
2022-09-12T10:01:24.757Z,1.10
2022-09-12T10:03:54.801Z,1.15
2022-09-12T10:06:33.006Z,3.00
2022-09-12T10:09:21.863Z,1.10
2022-09-12T10:11:53.142Z,4.32
2022-09-12T10:14:35.588Z,1.55
2022-09-12T10:17:22.744Z,1.70
2022-09-12T10:20:04.823Z,2.30
2022-09-12T10:22:51.186Z,1.58
2022-09-12T10:25:21.105Z,2.38
2022-09-12T10:27:56.936Z,0.93
2022-09-12T10:30:29.162Z,2.67
2022-09-12T10:33:07.268Z,1.17
2022-09-12T10:35:47.450Z,2.55
2022-09-12T10:38:24.710Z,2.22
2022-09-12T10:41:02.152Z,1.48
2022-09-12T10:43:35.661Z,2.42
2022-09-12T10:46:23.441Z,2.28
2022-09-12T10:48:53.640Z,1.38
2022-09-12T10:51:30.619Z,1.35
2022-09-12T10:54:05.201Z,2.10
2022-09-12T10:56:37.075Z,2.17
2022-09-12T10:59:20.122Z,1.27
2022-09-12T11:01:51.414Z,1.40
2022-09-12T11:04:30.553Z,5.13
2022-09-12T11:07:10.482Z,2.38
2022-09-12T11:09:48.545Z,1.85
2022-09-12T11:12:21.996Z,2.53
2022-09-12T11:15:03.980Z,1.83
2022-09-12T11:17:43.278Z,2.67
2022-09-12T11:20:44.426Z,1.20
2022-09-12T11:23:37.389Z,1.48
2022-09-12T11:26:20.288Z,3.63
2022-09-12T11:29:00.278Z,2.55
2022-09-12T11:31:47.202Z,4.55
2022-09-12T11:34:23.830Z,1.60
2022-09-12T11:37:31.807Z,2.78
2022-09-12T11:40:30.641Z,1.60
2022-09-12T11:43:32.847Z,3.53
2022-09-12T11:46:26.553Z,2.17
2022-09-12T11:49:24.069Z,2.30
2022-09-12T11:52:16.863Z,2.20
2022-09-12T11:55:11.051Z,3.70
2022-09-12T11:58:02.675Z,1.85
2022-09-12T12:00:57.934Z,1.27
2022-09-12T12:03:52.717Z,2.08
2022-09-12T12:06:52.549Z,1.05
2022-09-12T12:09:48.723Z,1.48
2022-09-12T12:12:37.431Z,1.65
2022-09-12T12:15:30.399Z,1.63
2022-09-12T12:18:23.931Z,1.50
2022-09-12T12:21:33.287Z,1.48
2022-09-12T12:24:24.567Z,0.45
2022-09-12T12:27:29.454Z,2.03
2022-09-12T12:31:03.146Z,0.90
2022-09-12T12:34:29.223Z,3.17
2022-09-12T12:37:58.610Z,2.45
2022-09-12T12:40:52.295Z,2.72
2022-09-12T12:43:41.536Z,1.35
2022-09-12T12:46:30.702Z,3.65
2022-09-12T12:49:28.343Z,2.28
2022-09-12T12:52:18.399Z,1.13
2022-09-12T12:55:07.703Z,2.42
2022-09-12T12:57:58.875Z,0.85
2022-09-12T13:00:48.098Z,3.28
2022-09-12T13:03:38.297Z,2.65
2022-09-12T13:06:35.059Z,1.52
2022-09-12T13:09:28.537Z,1.80
2022-09-12T13:12:24.098Z,2.53
2022-09-12T13:15:49.776Z,1.02
2022-09-12T13:18:43.870Z,2.20
2022-09-12T13:21:33.633Z,2.05
2022-09-12T13:24:24.077Z,1.15
2022-09-12T13:27:19.416Z,1.70
2022-09-12T13:30:09.648Z,2.67
2022-09-12T13:32:59.938Z,3.13
2022-09-12T13:36:14.541Z,1.88
2022-09-12T13:39:17.056Z,2.25
2022-09-12T13:42:47.816Z,1.85
2022-09-12T13:45:39.042Z,2.50
2022-09-12T13:48:28.003Z,2.47
2022-09-12T13:51:24.792Z,1.13
2022-09-12T13:54:24.298Z,1.83
2022-09-12T13:57:34.186Z,3.08
2022-09-12T14:00:24.329Z,2.08
2022-09-12T14:03:45.777Z,1.77
2022-09-12T14:06:43.683Z,1.20
2022-09-12T14:09:39.357Z,1.55
2022-09-12T14:12:30.216Z,1.23
2022-09-12T14:15:23.451Z,1.20
2022-09-12T14:18:25.856Z,3.35
2022-09-12T14:21:27.129Z,1.75
2022-09-12T14:24:15.726Z,1.83
2022-09-12T14:27:09.382Z,1.83
2022-09-12T14:30:03.190Z,1.48
2022-09-12T14:33:19.030Z,1.85
2022-09-12T14:36:14.768Z,1.77
2022-09-12T14:39:09.380Z,1.85
2022-09-12T14:42:10.351Z,1.42
2022-09-12T14:45:01.671Z,1.75
2022-09-12T14:47:53.375Z,3.00
2022-09-12T14:50:42.503Z,2.33
2022-09-12T14:53:35.800Z,1.20
2022-09-12T14:56:40.802Z,1.23
2022-09-12T14:59:37.227Z,1.30
2022-09-12T15:02:28.619Z,1.55
2022-09-12T15:05:25.679Z,1.42
2022-09-12T15:08:15.963Z,1.02
2022-09-12T15:11:10.450Z,2.05
2022-09-12T15:13:58.745Z,1.92
2022-09-12T15:16:48.472Z,1.33
2022-09-12T15:19:37.134Z,2.25
2022-09-12T15:22:26.268Z,1.92
2022-09-12T15:25:14.697Z,1.48
2022-09-12T15:28:06.675Z,1.73
2022-09-12T15:30:58.044Z,1.50
2022-09-12T15:33:48.167Z,2.58
2022-09-12T15:36:36.687Z,1.58
2022-09-12T15:39:28.309Z,1.52
2022-09-12T15:42:18.523Z,4.22
2022-09-12T15:45:18.610Z,3.22
2022-09-12T15:48:08.932Z,1.45
2022-09-12T15:51:01.427Z,4.07
2022-09-12T15:53:51.450Z,5.00
2022-09-12T15:56:41.374Z,5.20
2022-09-12T15:59:31.063Z,2.72
2022-09-12T16:02:20.612Z,1.88
2022-09-12T16:05:15.238Z,3.38
2022-09-12T16:08:05.583Z,2.95
2022-09-12T16:10:58.372Z,4.07
2022-09-12T16:13:48.838Z,6.05
2022-09-12T16:16:41.383Z,4.32
2022-09-12T16:19:30.460Z,4.30
2022-09-12T16:22:18.687Z,3.28
2022-09-12T16:25:11.549Z,2.28
2022-09-12T16:28:03.422Z,2.80
2022-09-12T16:30:56.580Z,2.33
2022-09-12T16:33:45.587Z,1.52
2022-09-12T16:36:35.575Z,2.35
2022-09-12T16:39:26.516Z,2.25
2022-09-12T16:42:18.011Z,7.22
2022-09-12T16:45:09.602Z,7.72
2022-09-12T16:47:57.849Z,3.60
2022-09-12T16:50:46.086Z,2.83
2022-09-12T16:53:42.032Z,3.15
2022-09-12T16:56:30.699Z,2.75
2022-09-12T16:59:20.905Z,1.73
2022-09-12T17:02:13.217Z,3.97
2022-09-12T17:05:01.430Z,8.50
2022-09-12T17:07:50.355Z,4.13
2022-09-12T17:10:42.363Z,4.38
2022-09-12T17:13:52.920Z,3.58
2022-09-12T17:16:46.912Z,4.03
2022-09-12T17:19:37.650Z,3.92
2022-09-12T17:22:27.815Z,4.47
2022-09-12T17:25:16.118Z,4.30
2022-09-12T17:28:05.493Z,4.85
2022-09-12T17:30:57.023Z,4.40
2022-09-12T17:33:46.674Z,4.03
2022-09-12T17:36:35.812Z,3.83
2022-09-12T17:39:24.048Z,3.95
2022-09-12T17:42:12.526Z,2.75
2022-09-12T17:45:00.908Z,2.42
2022-09-12T17:47:49.209Z,3.95
2022-09-12T17:50:41.178Z,3.08
2022-09-12T17:53:32.616Z,4.65
2022-09-12T17:56:21.100Z,4.05
2022-09-12T17:59:12.767Z,5.03
2022-09-12T18:02:16.222Z,5.10
2022-09-12T18:05:05.942Z,5.47
2022-09-12T18:07:55.837Z,3.63
2022-09-12T18:10:44.084Z,4.50
2022-09-12T18:13:33.050Z,4.43
2022-09-12T18:16:21.351Z,7.18
2022-09-12T18:19:11.227Z,5.28
2022-09-12T18:22:03.224Z,7.40
2022-09-12T18:24:53.869Z,4.60
2022-09-12T18:27:42.147Z,7.40
2022-09-12T18:30:32.451Z,4.22
2022-09-12T18:33:24.561Z,4.80
2022-09-12T18:36:18.771Z,4.35
2022-09-12T18:39:08.976Z,7.38
2022-09-12T18:42:02.538Z,5.57
2022-09-12T18:44:53.887Z,8.75
2022-09-12T18:47:42.656Z,2.83
2022-09-12T18:50:30.936Z,3.95
2022-09-12T18:53:20.611Z,3.47
2022-09-12T18:56:13.079Z,3.78
2022-09-12T18:59:05.051Z,6.70
2022-09-12T19:01:55.979Z,4.25
2022-09-12T19:04:45.195Z,7.18
2022-09-12T19:07:34.190Z,5.97
2022-09-12T19:10:23.004Z,6.40
2022-09-12T19:13:11.544Z,5.65
2022-09-12T19:16:03.095Z,8.05
2022-09-12T19:18:53.415Z,6.60
2022-09-12T19:21:43.222Z,5.50
2022-09-12T19:24:34.512Z,4.88
2022-09-12T19:27:23.096Z,5.07
2022-09-12T19:30:15.775Z,3.47
2022-09-12T19:33:05.397Z,4.22
2022-09-12T19:35:53.747Z,4.80
2022-09-12T19:38:42.632Z,4.63
2022-09-12T19:41:31.442Z,6.35
2022-09-12T19:44:20.382Z,4.53
2022-09-12T19:47:12.818Z,5.47
2022-09-12T19:50:02.425Z,4.20
2022-09-12T19:52:50.882Z,4.63
2022-09-12T19:55:39.128Z,6.72
2022-09-12T19:58:27.896Z,6.05
2022-09-12T20:01:19.573Z,2.95
2022-09-12T20:04:07.908Z,5.50
2022-09-12T20:06:57.497Z,4.07
2022-09-12T20:09:47.030Z,3.13
2022-09-12T20:12:35.313Z,3.50
2022-09-12T20:15:23.555Z,4.60
2022-09-12T20:18:11.791Z,6.30
2022-09-12T20:21:00.045Z,7.70
2022-09-12T20:23:50.078Z,7.03
2022-09-12T20:26:39.183Z,3.50
2022-09-12T20:29:30.444Z,4.75
2022-09-12T20:32:18.791Z,3.22
2022-09-12T20:35:08.706Z,4.97
2022-09-12T20:37:57.185Z,6.38
2022-09-12T20:40:50.384Z,4.65
2022-09-12T20:43:40.019Z,5.28
2022-09-12T20:46:29.653Z,5.85
2022-09-12T20:49:17.975Z,5.75
2022-09-12T20:52:08.690Z,4.22
2022-09-12T20:54:57.121Z,4.47
2022-09-12T20:57:50.162Z,5.15
2022-09-12T21:00:39.490Z,4.18
2022-09-12T21:03:27.977Z,3.42
2022-09-12T21:06:17.295Z,4.03
2022-09-12T21:09:07.604Z,4.75
2022-09-12T21:11:56.515Z,4.53
2022-09-12T21:14:46.218Z,5.40
2022-09-12T21:17:34.473Z,4.95
2022-09-12T21:20:22.705Z,4.03
2022-09-12T21:23:10.947Z,11.40
2022-09-12T21:26:00.326Z,5.80
2022-09-12T21:28:51.276Z,4.07
2022-09-12T21:31:40.931Z,4.45
2022-09-12T21:34:29.176Z,4.13
2022-09-12T21:37:17.445Z,4.25
2022-09-12T21:40:06.367Z,5.68
2022-09-12T21:42:55.255Z,4.35
2022-09-12T21:45:43.459Z,5.90
2022-09-12T21:48:34.097Z,3.35
2022-09-12T21:51:22.428Z,5.70
2022-09-12T21:54:10.651Z,4.95
2022-09-12T21:56:59.174Z,7.97
2022-09-12T21:59:47.378Z,4.53
2022-09-12T22:02:36.548Z,5.63
2022-09-12T22:05:31.136Z,4.93
2022-09-12T22:08:20.089Z,4.47
2022-09-12T22:11:10.364Z,6.95
2022-09-12T22:13:58.638Z,3.08
2022-09-12T22:16:46.976Z,5.57
2022-09-12T22:19:35.634Z,3.60
2022-09-12T22:22:42.922Z,4.47
2022-09-12T22:25:31.201Z,5.40
2022-09-12T22:28:19.670Z,5.55
2022-09-12T22:31:11.396Z,6.75
2022-09-12T22:33:59.943Z,8.10
2022-09-12T22:36:49.660Z,7.32
2022-09-12T22:39:39.432Z,6.53
2022-09-12T22:42:32.411Z,4.47
2022-09-12T22:45:20.947Z,5.78
2022-09-12T22:48:09.501Z,7.57
2022-09-12T22:50:57.881Z,6.35
2022-09-12T22:53:46.667Z,7.35
2022-09-12T22:56:36.514Z,5.63
2022-09-12T22:59:25.023Z,5.35
2022-09-12T23:02:14.352Z,6.82
2022-09-12T23:05:02.741Z,5.22
2022-09-12T23:07:52.031Z,4.55
2022-09-12T23:10:40.537Z,4.25
2022-09-12T23:13:31.206Z,7.80
2022-09-12T23:16:21.479Z,6.95
2022-09-12T23:19:09.750Z,4.82
2022-09-12T23:21:58.099Z,7.30
2022-09-12T23:24:46.414Z,7.18
2022-09-12T23:27:35.268Z,6.75
2022-09-12T23:30:27.018Z,5.65
2022-09-12T23:33:15.229Z,7.90
2022-09-12T23:36:06.103Z,6.88
2022-09-12T23:38:55.235Z,5.88
2022-09-12T23:41:43.453Z,6.80
2022-09-12T23:44:31.688Z,4.90
2022-09-12T23:47:21.264Z,7.80
2022-09-12T23:50:09.927Z,9.00
2022-09-12T23:52:58.151Z,6.20
2022-09-12T23:55:46.655Z,9.88
2022-09-12T23:58:35.503Z,8.65
